TAF KSHV
KSHV 090532Z 0906/1006 14007KT P6SM BKN025 FM090700 17008KT P6SM BKN015 OVC250 FM091200 18008KT 4SM BR OVC010 TEMPO 0912/0914 1SM BR OVC005 FM091600 21014G21KT P6SM OVC015 FM092100 22012G19KT P6SM OVC050 FM092300 20008KT P6SM BKN250 FM100000 19006KT P6SM BKN250=
METAR KSHV
KSHV 091056Z 15006KT 10SM BKN018 OVC025 13/09 A2991 RMK AO2 SLP127 T01280089 ?
KSHV 090956Z 16005KT 10SM OVC023 13/09 A2992 RMK AO2 SLP128 T01280089 ?
KSHV 090856Z 14004KT 10SM OVC022 13/09 A2993 RMK AO2 SLP132 T01280089 56011 ?
KSHV 090756Z 15007KT 10SM OVC022 12/08 A2993 RMK AO2 SLP132 T01220083 ?
KSHV 090656Z 15008KT 10SM OVC019 13/08 A2995 RMK AO2 SLP140 T01280083 ?
WC KSHV
WS KSHV
WV KSHV